sensor_id;sensor_type;location;lat;lon;timestamp;pressure;altitude;pressure_sealevel;temperature;humidity
70323;BME280;57735;56.264;43.898;2023-04-27T00:01:54;99686.72;;;12.94;73.29
70323;BME280;57735;56.264;43.898;2023-04-27T00:04:25;99685.91;;;12.93;73.30
70323;BME280;57735;56.264;43.898;2023-04-27T00:06:58;99697.19;;;12.89;73.41
70323;BME280;57735;56.264;43.898;2023-04-27T00:09:29;99699.19;;;12.87;73.62
70323;BME280;57735;56.264;43.898;2023-04-27T00:12:00;99698.38;;;12.86;73.49
70323;BME280;57735;56.264;43.898;2023-04-27T00:14:31;99708.91;;;12.88;73.60
70323;BME280;57735;56.264;43.898;2023-04-27T00:17:02;99704.38;;;12.88;73.62
70323;BME280;57735;56.264;43.898;2023-04-27T00:19:32;99707.03;;;12.88;73.57
70323;BME280;57735;56.264;43.898;2023-04-27T00:22:04;99710.09;;;12.85;73.48
70323;BME280;57735;56.264;43.898;2023-04-27T00:24:35;99714.44;;;12.86;73.60
70323;BME280;57735;56.264;43.898;2023-04-27T00:27:06;99717.47;;;12.83;73.78
70323;BME280;57735;56.264;43.898;2023-04-27T00:29:37;99724.84;;;12.81;73.79
70323;BME280;57735;56.264;43.898;2023-04-27T00:32:12;99732.03;;;12.81;73.53
70323;BME280;57735;56.264;43.898;2023-04-27T00:34:42;99726.22;;;12.77;73.51
70323;BME280;57735;56.264;43.898;2023-04-27T00:37:13;99725.94;;;12.72;73.80
70323;BME280;57735;56.264;43.898;2023-04-27T00:39:44;99729.63;;;12.71;73.86
70323;BME280;57735;56.264;43.898;2023-04-27T00:42:14;99732.03;;;12.66;73.71
70323;BME280;57735;56.264;43.898;2023-04-27T00:44:48;99730.72;;;12.62;74.00
70323;BME280;57735;56.264;43.898;2023-04-27T00:47:19;99724.91;;;12.58;73.94
70323;BME280;57735;56.264;43.898;2023-04-27T00:49:50;99725.91;;;12.57;74.00
70323;BME280;57735;56.264;43.898;2023-04-27T00:52:21;99732.66;;;12.53;73.95
70323;BME280;57735;56.264;43.898;2023-04-27T00:54:52;99722.31;;;12.50;74.29
70323;BME280;57735;56.264;43.898;2023-04-27T00:57:23;99730.16;;;12.52;74.23
70323;BME280;57735;56.264;43.898;2023-04-27T00:59:54;99731.19;;;12.51;74.34
70323;BME280;57735;56.264;43.898;2023-04-27T01:02:25;99734.69;;;12.51;74.28
70323;BME280;57735;56.264;43.898;2023-04-27T01:04:56;99733.50;;;12.54;74.24
70323;BME280;57735;56.264;43.898;2023-04-27T01:07:27;99730.63;;;12.55;74.28
70323;BME280;57735;56.264;43.898;2023-04-27T01:09:58;99732.00;;;12.51;73.98
70323;BME280;57735;56.264;43.898;2023-04-27T01:12:29;99730.88;;;12.46;74.17
70323;BME280;57735;56.264;43.898;2023-04-27T01:15:05;99730.69;;;12.47;74.09
70323;BME280;57735;56.264;43.898;2023-04-27T01:17:36;99731.72;;;12.46;74.16
70323;BME280;57735;56.264;43.898;2023-04-27T01:20:07;99742.75;;;12.43;74.41
70323;BME280;57735;56.264;43.898;2023-04-27T01:22:39;99743.31;;;12.39;74.37
70323;BME280;57735;56.264;43.898;2023-04-27T01:25:11;99740.34;;;12.34;74.20
70323;BME280;57735;56.264;43.898;2023-04-27T01:27:42;99750.38;;;12.32;74.32
70323;BME280;57735;56.264;43.898;2023-04-27T01:30:13;99746.72;;;12.33;74.57
70323;BME280;57735;56.264;43.898;2023-04-27T01:32:45;99751.03;;;12.34;74.64
70323;BME280;57735;56.264;43.898;2023-04-27T01:35:15;99758.06;;;12.35;74.77
70323;BME280;57735;56.264;43.898;2023-04-27T01:37:46;99760.38;;;12.38;74.57
70323;BME280;57735;56.264;43.898;2023-04-27T01:40:17;99761.56;;;12.35;74.28
70323;BME280;57735;56.264;43.898;2023-04-27T01:42:48;99761.91;;;12.32;74.31
70323;BME280;57735;56.264;43.898;2023-04-27T01:45:18;99764.75;;;12.31;74.60
70323;BME280;57735;56.264;43.898;2023-04-27T01:47:50;99763.75;;;12.32;74.57
70323;BME280;57735;56.264;43.898;2023-04-27T01:50:21;99757.56;;;12.31;74.30
70323;BME280;57735;56.264;43.898;2023-04-27T01:52:54;99773.63;;;12.31;74.49
70323;BME280;57735;56.264;43.898;2023-04-27T01:55:25;99774.78;;;12.29;74.29
70323;BME280;57735;56.264;43.898;2023-04-27T01:57:58;99767.78;;;12.28;74.33
70323;BME280;57735;56.264;43.898;2023-04-27T02:00:29;99769.44;;;12.29;74.30
70323;BME280;57735;56.264;43.898;2023-04-27T02:03:00;99772.94;;;12.29;74.20
70323;BME280;57735;56.264;43.898;2023-04-27T02:05:34;99781.81;;;12.30;74.31
70323;BME280;57735;56.264;43.898;2023-04-27T02:08:05;99776.28;;;12.31;74.34
70323;BME280;57735;56.264;43.898;2023-04-27T02:10:36;99777.94;;;12.32;73.94
70323;BME280;57735;56.264;43.898;2023-04-27T02:13:09;99780.44;;;12.34;73.88
70323;BME280;57735;56.264;43.898;2023-04-27T02:15:40;99782.09;;;12.35;73.68
70323;BME280;57735;56.264;43.898;2023-04-27T02:18:11;99784.97;;;12.33;73.75
70323;BME280;57735;56.264;43.898;2023-04-27T02:20:42;99789.81;;;12.30;73.64
70323;BME280;57735;56.264;43.898;2023-04-27T02:23:12;99793.16;;;12.32;73.49
70323;BME280;57735;56.264;43.898;2023-04-27T02:25:43;99789.47;;;12.33;73.72
70323;BME280;57735;56.264;43.898;2023-04-27T02:28:16;99795.81;;;12.32;73.51
70323;BME280;57735;56.264;43.898;2023-04-27T02:30:46;99800.81;;;12.35;73.51
70323;BME280;57735;56.264;43.898;2023-04-27T02:33:20;99804.31;;;12.35;73.50
70323;BME280;57735;56.264;43.898;2023-04-27T02:35:50;99803.13;;;12.38;73.50
70323;BME280;57735;56.264;43.898;2023-04-27T02:38:21;99807.25;;;12.40;73.27
70323;BME280;57735;56.264;43.898;2023-04-27T02:40:55;99807.09;;;12.42;72.98
70323;BME280;57735;56.264;43.898;2023-04-27T02:43:28;99811.81;;;12.40;72.82
70323;BME280;57735;56.264;43.898;2023-04-27T02:46:03;99810.78;;;12.41;72.95
70323;BME280;57735;56.264;43.898;2023-04-27T02:48:33;99814.59;;;12.46;72.62
70323;BME280;57735;56.264;43.898;2023-04-27T02:51:04;99812.38;;;12.50;72.20
70323;BME280;57735;56.264;43.898;2023-04-27T02:53:36;99810.53;;;12.50;72.37
70323;BME280;57735;56.264;43.898;2023-04-27T02:56:07;99815.53;;;12.53;72.40
70323;BME280;57735;56.264;43.898;2023-04-27T02:58:38;99821.72;;;12.54;72.35
70323;BME280;57735;56.264;43.898;2023-04-27T03:01:08;99829.56;;;12.55;72.29
70323;BME280;57735;56.264;43.898;2023-04-27T03:03:39;99831.75;;;12.52;72.10
70323;BME280;57735;56.264;43.898;2023-04-27T03:06:10;99832.09;;;12.49;72.25
70323;BME280;57735;56.264;43.898;2023-04-27T03:08:41;99837.47;;;12.49;72.49
70323;BME280;57735;56.264;43.898;2023-04-27T03:11:12;99833.59;;;12.51;72.38
70323;BME280;57735;56.264;43.898;2023-04-27T03:13:42;99841.78;;;12.50;72.40
70323;BME280;57735;56.264;43.898;2023-04-27T03:16:13;99850.16;;;12.47;72.37
70323;BME280;57735;56.264;43.898;2023-04-27T03:18:44;99854.69;;;12.46;72.80
70323;BME280;57735;56.264;43.898;2023-04-27T03:21:15;99860.84;;;12.47;72.61
70323;BME280;57735;56.264;43.898;2023-04-27T03:23:50;99860.84;;;12.47;72.48
70323;BME280;57735;56.264;43.898;2023-04-27T03:26:21;99866.19;;;12.47;72.62
70323;BME280;57735;56.264;43.898;2023-04-27T03:28:52;99861.69;;;12.47;72.84
70323;BME280;57735;56.264;43.898;2023-04-27T03:31:23;99865.38;;;12.46;72.64
70323;BME280;57735;56.264;43.898;2023-04-27T03:33:53;99870.38;;;12.49;72.60
70323;BME280;57735;56.264;43.898;2023-04-27T03:36:26;99878.22;;;12.51;72.41
70323;BME280;57735;56.264;43.898;2023-04-27T03:38:57;99884.41;;;12.51;72.80
70323;BME280;57735;56.264;43.898;2023-04-27T03:41:28;99879.53;;;12.55;72.71
70323;BME280;57735;56.264;43.898;2023-04-27T03:43:59;99882.81;;;12.57;72.47
70323;BME280;57735;56.264;43.898;2023-04-27T03:46:34;99881.81;;;12.58;72.30
70323;BME280;57735;56.264;43.898;2023-04-27T03:49:05;99885.81;;;12.62;72.46
70323;BME280;57735;56.264;43.898;2023-04-27T03:51:36;99885.63;;;12.64;72.12
70323;BME280;57735;56.264;43.898;2023-04-27T03:54:11;99880.09;;;12.65;72.30
70323;BME280;57735;56.264;43.898;2023-04-27T03:56:42;99894.13;;;12.67;71.94
70323;BME280;57735;56.264;43.898;2023-04-27T03:59:13;99887.59;;;12.70;72.13
70323;BME280;57735;56.264;43.898;2023-04-27T04:01:44;99886.94;;;12.68;71.84
70323;BME280;57735;56.264;43.898;2023-04-27T04:04:15;99898.66;;;12.67;71.90
70323;BME280;57735;56.264;43.898;2023-04-27T04:06:49;99895.81;;;12.68;71.79
70323;BME280;57735;56.264;43.898;2023-04-27T04:09:20;99898.66;;;12.67;71.76
70323;BME280;57735;56.264;43.898;2023-04-27T04:11:53;99907.81;;;12.72;71.95
70323;BME280;57735;56.264;43.898;2023-04-27T04:14:23;99905.72;;;12.82;71.70
70323;BME280;57735;56.264;43.898;2023-04-27T04:16:54;99903.78;;;12.91;71.16
70323;BME280;57735;56.264;43.898;2023-04-27T04:19:25;99915.63;;;12.97;70.73
70323;BME280;57735;56.264;43.898;2023-04-27T04:21:56;99913.91;;;13.04;70.96
70323;BME280;57735;56.264;43.898;2023-04-27T04:24:27;99917.22;;;13.06;70.63
70323;BME280;57735;56.264;43.898;2023-04-27T04:26:57;99907.53;;;13.05;70.26
70323;BME280;57735;56.264;43.898;2023-04-27T04:29:28;99905.50;;;13.07;70.35
70323;BME280;57735;56.264;43.898;2023-04-27T04:31:59;99918.50;;;13.10;70.35
70323;BME280;57735;56.264;43.898;2023-04-27T04:34:30;99915.19;;;13.08;70.43
70323;BME280;57735;56.264;43.898;2023-04-27T04:37:04;99929.19;;;13.18;70.32
70323;BME280;57735;56.264;43.898;2023-04-27T04:39:34;99924.75;;;13.25;70.01
70323;BME280;57735;56.264;43.898;2023-04-27T04:42:14;99921.25;;;13.24;69.80
70323;BME280;57735;56.264;43.898;2023-04-27T04:44:45;99922.72;;;13.27;69.81
70323;BME280;57735;56.264;43.898;2023-04-27T04:47:16;99922.53;;;13.28;69.63
70323;BME280;57735;56.264;43.898;2023-04-27T04:49:47;99942.22;;;13.36;69.31
70323;BME280;57735;56.264;43.898;2023-04-27T04:52:18;99933.38;;;13.35;69.37
70323;BME280;57735;56.264;43.898;2023-04-27T04:54:51;99932.06;;;13.46;68.97
70323;BME280;57735;56.264;43.898;2023-04-27T04:57:23;99935.59;;;13.61;68.31
70323;BME280;57735;56.264;43.898;2023-04-27T04:59:53;99932.38;;;13.66;68.12
70323;BME280;57735;56.264;43.898;2023-04-27T05:02:24;99931.66;;;13.72;67.77
70323;BME280;57735;56.264;43.898;2023-04-27T05:04:55;99934.59;;;13.77;67.32
70323;BME280;57735;56.264;43.898;2023-04-27T05:07:26;99938.03;;;13.71;67.29
70323;BME280;57735;56.264;43.898;2023-04-27T05:09:57;99941.44;;;13.65;67.64
70323;BME280;57735;56.264;43.898;2023-04-27T05:12:28;99950.13;;;13.67;67.77
70323;BME280;57735;56.264;43.898;2023-04-27T05:14:59;99953.44;;;13.69;67.61
70323;BME280;57735;56.264;43.898;2023-04-27T05:17:29;99952.13;;;13.79;67.30
70323;BME280;57735;56.264;43.898;2023-04-27T05:20:00;99950.56;;;13.85;66.60
70323;BME280;57735;56.264;43.898;2023-04-27T05:22:31;99953.91;;;13.87;65.97
70323;BME280;57735;56.264;43.898;2023-04-27T05:25:02;99946.88;;;13.86;66.06
70323;BME280;57735;56.264;43.898;2023-04-27T05:27:34;99958.91;;;13.90;65.81
70323;BME280;57735;56.264;43.898;2023-04-27T05:30:05;99960.53;;;13.91;65.87
70323;BME280;57735;56.264;43.898;2023-04-27T05:32:37;99964.34;;;13.96;65.88
70323;BME280;57735;56.264;43.898;2023-04-27T05:35:11;99961.28;;;14.00;65.40
70323;BME280;57735;56.264;43.898;2023-04-27T05:37:42;99972.53;;;14.10;65.28
70323;BME280;57735;56.264;43.898;2023-04-27T05:40:16;99965.16;;;14.12;64.97
70323;BME280;57735;56.264;43.898;2023-04-27T05:42:47;99964.69;;;14.23;64.56
70323;BME280;57735;56.264;43.898;2023-04-27T05:45:18;99971.22;;;14.35;64.03
70323;BME280;57735;56.264;43.898;2023-04-27T05:47:49;99973.91;;;14.50;63.64
70323;BME280;57735;56.264;43.898;2023-04-27T05:50:21;99974.31;;;14.68;62.97
70323;BME280;57735;56.264;43.898;2023-04-27T05:52:52;99977.69;;;14.77;62.70
70323;BME280;57735;56.264;43.898;2023-04-27T05:55:23;99976.31;;;14.81;62.61
70323;BME280;57735;56.264;43.898;2023-04-27T05:57:56;99977.97;;;14.82;62.44
70323;BME280;57735;56.264;43.898;2023-04-27T06:00:26;99985.19;;;14.81;62.35
70323;BME280;57735;56.264;43.898;2023-04-27T06:02:57;99990.81;;;14.86;62.57
70323;BME280;57735;56.264;43.898;2023-04-27T06:05:28;99986.66;;;14.84;62.32
70323;BME280;57735;56.264;43.898;2023-04-27T06:07:59;99987.59;;;14.76;62.08
70323;BME280;57735;56.264;43.898;2023-04-27T06:10:30;99988.25;;;14.78;62.01
70323;BME280;57735;56.264;43.898;2023-04-27T06:13:01;99994.53;;;14.85;61.82
70323;BME280;57735;56.264;43.898;2023-04-27T06:15:31;99994.25;;;14.80;61.66
70323;BME280;57735;56.264;43.898;2023-04-27T06:18:02;100002.34;;;14.65;61.62
70323;BME280;57735;56.264;43.898;2023-04-27T06:20:33;100012.63;;;14.62;62.27
70323;BME280;57735;56.264;43.898;2023-04-27T06:23:04;100015.69;;;14.59;62.46
70323;BME280;57735;56.264;43.898;2023-04-27T06:25:35;100022.66;;;14.53;62.22
70323;BME280;57735;56.264;43.898;2023-04-27T06:28:11;100026.22;;;14.60;61.89
70323;BME280;57735;56.264;43.898;2023-04-27T06:30:41;100029.44;;;14.71;61.77
70323;BME280;57735;56.264;43.898;2023-04-27T06:33:12;100031.19;;;14.78;61.50
70323;BME280;57735;56.264;43.898;2023-04-27T06:35:43;100028.91;;;14.96;61.32
70323;BME280;57735;56.264;43.898;2023-04-27T06:38:19;100040.38;;;15.05;60.63
70323;BME280;57735;56.264;43.898;2023-04-27T06:40:50;100031.84;;;15.01;60.53
70323;BME280;57735;56.264;43.898;2023-04-27T06:43:21;100048.00;;;15.08;60.08
70323;BME280;57735;56.264;43.898;2023-04-27T06:45:52;100052.44;;;15.16;59.88
70323;BME280;57735;56.264;43.898;2023-04-27T06:48:23;100053.00;;;15.11;59.68
70323;BME280;57735;56.264;43.898;2023-04-27T06:50:56;100049.91;;;15.08;60.05
70323;BME280;57735;56.264;43.898;2023-04-27T06:53:27;100050.47;;;15.03;59.99
70323;BME280;57735;56.264;43.898;2023-04-27T06:56:02;100055.25;;;15.08;59.63
70323;BME280;57735;56.264;43.898;2023-04-27T06:58:33;100055.81;;;15.46;58.22
70323;BME280;57735;56.264;43.898;2023-04-27T07:01:04;100055.38;;;15.42;58.25
70323;BME280;57735;56.264;43.898;2023-04-27T07:03:36;100056.03;;;15.23;59.21
70323;BME280;57735;56.264;43.898;2023-04-27T07:06:13;100068.16;;;15.19;59.72
70323;BME280;57735;56.264;43.898;2023-04-27T07:08:44;100068.88;;;15.27;59.28
70323;BME280;57735;56.264;43.898;2023-04-27T07:11:17;100068.44;;;15.24;59.17
70323;BME280;57735;56.264;43.898;2023-04-27T07:13:48;100080.41;;;15.21;59.17
70323;BME280;57735;56.264;43.898;2023-04-27T07:16:18;100068.44;;;15.24;58.74
70323;BME280;57735;56.264;43.898;2023-04-27T07:18:49;100078.78;;;15.27;59.11
70323;BME280;57735;56.264;43.898;2023-04-27T07:21:20;100071.56;;;15.27;58.43
70323;BME280;57735;56.264;43.898;2023-04-27T07:23:51;100078.34;;;15.23;58.29
70323;BME280;57735;56.264;43.898;2023-04-27T07:26:23;100082.94;;;15.29;58.56
70323;BME280;57735;56.264;43.898;2023-04-27T07:28:54;100089.59;;;15.33;59.05
70323;BME280;57735;56.264;43.898;2023-04-27T07:31:26;100098.88;;;15.31;58.68
70323;BME280;57735;56.264;43.898;2023-04-27T07:33:57;100096.00;;;15.32;58.28
70323;BME280;57735;56.264;43.898;2023-04-27T07:36:29;100094.22;;;15.40;58.38
70323;BME280;57735;56.264;43.898;2023-04-27T07:39:01;100095.88;;;15.41;58.10
70323;BME280;57735;56.264;43.898;2023-04-27T07:41:33;100106.28;;;15.29;58.71
70323;BME280;57735;56.264;43.898;2023-04-27T07:44:05;100103.09;;;15.19;59.16
70323;BME280;57735;56.264;43.898;2023-04-27T07:46:35;100113.38;;;15.15;59.69
70323;BME280;57735;56.264;43.898;2023-04-27T07:49:08;100116.69;;;15.17;59.29
70323;BME280;57735;56.264;43.898;2023-04-27T07:51:41;100121.03;;;15.18;59.46
70323;BME280;57735;56.264;43.898;2023-04-27T07:54:12;100111.13;;;15.19;59.54
70323;BME280;57735;56.264;43.898;2023-04-27T07:56:43;100115.34;;;15.28;59.61
70323;BME280;57735;56.264;43.898;2023-04-27T07:59:14;100125.66;;;15.46;58.86
70323;BME280;57735;56.264;43.898;2023-04-27T08:01:45;100119.47;;;15.45;59.13
70323;BME280;57735;56.264;43.898;2023-04-27T08:04:18;100132.69;;;15.47;58.77
70323;BME280;57735;56.264;43.898;2023-04-27T08:06:48;100127.06;;;15.56;58.74
70323;BME280;57735;56.264;43.898;2023-04-27T08:09:19;100132.75;;;15.68;58.07
70323;BME280;57735;56.264;43.898;2023-04-27T08:11:53;100141.06;;;15.73;57.71
70323;BME280;57735;56.264;43.898;2023-04-27T08:14:23;100146.66;;;15.78;57.98
70323;BME280;57735;56.264;43.898;2023-04-27T08:17:00;100151.56;;;15.89;58.21
70323;BME280;57735;56.264;43.898;2023-04-27T08:19:30;100144.72;;;15.93;58.39
70323;BME280;57735;56.264;43.898;2023-04-27T08:22:01;100155.94;;;15.97;59.60
70323;BME280;57735;56.264;43.898;2023-04-27T08:24:32;100163.09;;;16.11;60.22
70323;BME280;57735;56.264;43.898;2023-04-27T08:27:04;100155.28;;;16.16;61.28
70323;BME280;57735;56.264;43.898;2023-04-27T08:29:35;100158.22;;;16.21;61.29
70323;BME280;57735;56.264;43.898;2023-04-27T08:32:06;100155.09;;;16.18;61.20
70323;BME280;57735;56.264;43.898;2023-04-27T08:34:38;100153.06;;;16.26;60.86
70323;BME280;57735;56.264;43.898;2023-04-27T08:37:12;100156.19;;;16.30;61.35
70323;BME280;57735;56.264;43.898;2023-04-27T08:39:43;100154.72;;;16.27;61.59
70323;BME280;57735;56.264;43.898;2023-04-27T08:42:14;100146.97;;;16.39;60.41
70323;BME280;57735;56.264;43.898;2023-04-27T08:44:45;100157.88;;;16.31;59.58
70323;BME280;57735;56.264;43.898;2023-04-27T08:47:19;100162.06;;;16.12;60.22
70323;BME280;57735;56.264;43.898;2023-04-27T08:49:50;100162.22;;;16.04;59.83
70323;BME280;57735;56.264;43.898;2023-04-27T08:52:21;100165.09;;;16.02;59.76
70323;BME280;57735;56.264;43.898;2023-04-27T08:54:53;100162.84;;;16.06;59.29
70323;BME280;57735;56.264;43.898;2023-04-27T08:57:24;100169.47;;;16.10;59.09
70323;BME280;57735;56.264;43.898;2023-04-27T08:59:59;100172.97;;;16.32;58.53
70323;BME280;57735;56.264;43.898;2023-04-27T09:02:30;100179.13;;;16.54;58.13
70323;BME280;57735;56.264;43.898;2023-04-27T09:05:01;100174.59;;;16.61;57.91
70323;BME280;57735;56.264;43.898;2023-04-27T09:07:36;100179.91;;;16.48;57.40
70323;BME280;57735;56.264;43.898;2023-04-27T09:10:10;100174.38;;;16.28;58.09
70323;BME280;57735;56.264;43.898;2023-04-27T09:12:54;100174.63;;;16.05;59.12
70323;BME280;57735;56.264;43.898;2023-04-27T09:15:25;100167.16;;;16.00;59.17
70323;BME280;57735;56.264;43.898;2023-04-27T09:17:59;100168.72;;;16.16;58.48
70323;BME280;57735;56.264;43.898;2023-04-27T09:20:32;100187.16;;;16.19;58.59
70323;BME280;57735;56.264;43.898;2023-04-27T09:23:04;100182.88;;;16.25;58.17
70323;BME280;57735;56.264;43.898;2023-04-27T09:25:38;100182.34;;;16.42;58.07
70323;BME280;57735;56.264;43.898;2023-04-27T09:28:09;100180.00;;;16.61;57.50
70323;BME280;57735;56.264;43.898;2023-04-27T09:30:53;100184.41;;;17.09;55.24
70323;BME280;57735;56.264;43.898;2023-04-27T09:33:31;100191.72;;;17.76;53.63
70323;BME280;57735;56.264;43.898;2023-04-27T09:36:05;100189.66;;;18.31;52.79
70323;BME280;57735;56.264;43.898;2023-04-27T09:38:36;100192.16;;;18.46;51.50
70323;BME280;57735;56.264;43.898;2023-04-27T09:41:07;100203.81;;;18.20;51.49
70323;BME280;57735;56.264;43.898;2023-04-27T09:43:38;100196.75;;;18.06;52.41
70323;BME280;57735;56.264;43.898;2023-04-27T09:46:12;100197.75;;;17.98;52.26
70323;BME280;57735;56.264;43.898;2023-04-27T09:48:43;100196.75;;;18.06;52.63
70323;BME280;57735;56.264;43.898;2023-04-27T09:51:16;100201.09;;;18.07;51.85
70323;BME280;57735;56.264;43.898;2023-04-27T09:53:57;100202.53;;;18.16;51.85
70323;BME280;57735;56.264;43.898;2023-04-27T09:59:29;100199.66;;;18.24;51.79
70323;BME280;57735;56.264;43.898;2023-04-27T10:02:04;100192.38;;;17.98;52.03
70323;BME280;57735;56.264;43.898;2023-04-27T10:07:34;100198.78;;;17.84;53.02
70323;BME280;57735;56.264;43.898;2023-04-27T10:10:07;100206.69;;;17.99;52.60
70323;BME280;57735;56.264;43.898;2023-04-27T10:13:01;100210.00;;;18.14;52.05
70323;BME280;57735;56.264;43.898;2023-04-27T10:15:38;100210.22;;;18.19;51.13
70323;BME280;57735;56.264;43.898;2023-04-27T10:18:09;100203.38;;;18.03;51.33
70323;BME280;57735;56.264;43.898;2023-04-27T10:20:40;100218.28;;;17.86;51.81
70323;BME280;57735;56.264;43.898;2023-04-27T10:23:24;100211.66;;;17.89;51.64
70323;BME280;57735;56.264;43.898;2023-04-27T10:26:06;100214.78;;;17.99;51.35
70323;BME280;57735;56.264;43.898;2023-04-27T10:28:37;100208.78;;;18.17;51.04
70323;BME280;57735;56.264;43.898;2023-04-27T10:31:13;100216.25;;;18.34;50.74
70323;BME280;57735;56.264;43.898;2023-04-27T10:33:44;100224.13;;;18.16;51.08
70323;BME280;57735;56.264;43.898;2023-04-27T10:36:15;100215.63;;;18.12;51.15
70323;BME280;57735;56.264;43.898;2023-04-27T10:38:55;100220.41;;;18.24;51.06
70323;BME280;57735;56.264;43.898;2023-04-27T10:41:33;100218.09;;;18.27;51.85
70323;BME280;57735;56.264;43.898;2023-04-27T10:44:41;100228.28;;;18.38;50.77
70323;BME280;57735;56.264;43.898;2023-04-27T10:47:15;100213.94;;;18.44;51.13
70323;BME280;57735;56.264;43.898;2023-04-27T10:49:45;100218.72;;;18.56;50.73
70323;BME280;57735;56.264;43.898;2023-04-27T10:52:17;100218.34;;;18.59;49.76
70323;BME280;57735;56.264;43.898;2023-04-27T10:54:55;100213.94;;;18.77;49.19
70323;BME280;57735;56.264;43.898;2023-04-27T10:57:25;100213.72;;;18.92;49.00
70323;BME280;57735;56.264;43.898;2023-04-27T10:59:56;100200.41;;;18.91;49.53
70323;BME280;57735;56.264;43.898;2023-04-27T11:02:28;100215.75;;;18.97;48.89
70323;BME280;57735;56.264;43.898;2023-04-27T11:04:58;100214.31;;;19.01;48.45
70323;BME280;57735;56.264;43.898;2023-04-27T11:07:29;100222.88;;;18.78;48.21
70323;BME280;57735;56.264;43.898;2023-04-27T11:10:00;100224.34;;;18.47;48.65
70323;BME280;57735;56.264;43.898;2023-04-27T11:12:31;100217.28;;;18.40;49.28
70323;BME280;57735;56.264;43.898;2023-04-27T11:15:02;100226.19;;;18.47;49.41
70323;BME280;57735;56.264;43.898;2023-04-27T11:17:37;100221.22;;;18.51;49.37
70323;BME280;57735;56.264;43.898;2023-04-27T11:20:08;100223.31;;;18.68;48.87
70323;BME280;57735;56.264;43.898;2023-04-27T11:22:45;100223.72;;;18.65;49.07
70323;BME280;57735;56.264;43.898;2023-04-27T11:25:25;100218.09;;;18.93;48.16
70323;BME280;57735;56.264;43.898;2023-04-27T11:27:57;100222.78;;;19.17;47.71
70323;BME280;57735;56.264;43.898;2023-04-27T11:30:28;100222.75;;;19.24;46.93
70323;BME280;57735;56.264;43.898;2023-04-27T11:33:07;100222.78;;;19.17;46.40
70323;BME280;57735;56.264;43.898;2023-04-27T11:35:38;100220.75;;;19.06;46.04
70323;BME280;57735;56.264;43.898;2023-04-27T11:38:15;100225.72;;;19.03;46.15
70323;BME280;57735;56.264;43.898;2023-04-27T11:40:58;100219.03;;;19.12;46.07
70323;BME280;57735;56.264;43.898;2023-04-27T11:43:30;100226.09;;;19.20;46.33
70323;BME280;57735;56.264;43.898;2023-04-27T11:46:04;100228.38;;;19.16;45.61
70323;BME280;57735;56.264;43.898;2023-04-27T11:48:41;100225.59;;;19.36;45.25
70323;BME280;57735;56.264;43.898;2023-04-27T11:51:14;100222.16;;;19.15;46.30
70323;BME280;57735;56.264;43.898;2023-04-27T11:53:48;100229.47;;;19.08;45.62
70323;BME280;57735;56.264;43.898;2023-04-27T11:56:20;100238.00;;;19.05;45.76
70323;BME280;57735;56.264;43.898;2023-04-27T11:58:51;100234.72;;;18.83;45.76
70323;BME280;57735;56.264;43.898;2023-04-27T12:01:22;100232.63;;;18.79;46.55
70323;BME280;57735;56.264;43.898;2023-04-27T12:03:54;100237.19;;;18.85;45.35
70323;BME280;57735;56.264;43.898;2023-04-27T12:06:27;100232.84;;;18.84;45.54
70323;BME280;57735;56.264;43.898;2023-04-27T12:08:59;100225.72;;;18.96;45.65
70323;BME280;57735;56.264;43.898;2023-04-27T12:11:32;100223.03;;;18.96;45.95
70323;BME280;57735;56.264;43.898;2023-04-27T12:14:03;100231.97;;;19.03;45.48
70323;BME280;57735;56.264;43.898;2023-04-27T12:16:34;100230.88;;;19.17;44.73
70323;BME280;57735;56.264;43.898;2023-04-27T12:19:05;100230.41;;;19.27;43.72
70323;BME280;57735;56.264;43.898;2023-04-27T12:21:35;100232.19;;;19.46;43.87
70323;BME280;57735;56.264;43.898;2023-04-27T12:24:06;100241.56;;;19.57;43.33
70323;BME280;57735;56.264;43.898;2023-04-27T12:26:37;100243.91;;;19.85;42.82
70323;BME280;57735;56.264;43.898;2023-04-27T12:29:09;100238.31;;;20.43;42.26
70323;BME280;57735;56.264;43.898;2023-04-27T12:31:40;100247.94;;;21.25;41.35
70323;BME280;57735;56.264;43.898;2023-04-27T12:34:11;100246.00;;;22.10;39.70
70323;BME280;57735;56.264;43.898;2023-04-27T12:36:42;100239.09;;;22.61;38.89
70323;BME280;57735;56.264;43.898;2023-04-27T12:39:20;100240.72;;;22.50;37.79
70323;BME280;57735;56.264;43.898;2023-04-27T12:41:52;100240.63;;;22.69;37.99
70323;BME280;57735;56.264;43.898;2023-04-27T12:44:23;100247.69;;;21.93;38.20
70323;BME280;57735;56.264;43.898;2023-04-27T12:46:54;100254.16;;;21.92;38.34
70323;BME280;57735;56.264;43.898;2023-04-27T12:49:25;100245.78;;;22.47;37.73
70323;BME280;57735;56.264;43.898;2023-04-27T12:51:58;100245.25;;;23.03;35.60
70323;BME280;57735;56.264;43.898;2023-04-27T12:54:43;100243.03;;;23.52;35.41
70323;BME280;57735;56.264;43.898;2023-04-27T12:57:26;100238.56;;;24.02;34.45
70323;BME280;57735;56.264;43.898;2023-04-27T12:59:57;100255.78;;;24.53;34.07
70323;BME280;57735;56.264;43.898;2023-04-27T13:02:28;100245.00;;;24.80;32.67
70323;BME280;57735;56.264;43.898;2023-04-27T13:04:59;100237.75;;;25.02;31.99
70323;BME280;57735;56.264;43.898;2023-04-27T13:07:30;100256.22;;;25.17;31.91
70323;BME280;57735;56.264;43.898;2023-04-27T13:10:01;100258.38;;;25.37;31.26
70323;BME280;57735;56.264;43.898;2023-04-27T13:12:33;100262.97;;;24.26;31.95
70323;BME280;57735;56.264;43.898;2023-04-27T13:15:08;100256.50;;;24.99;31.70
70323;BME280;57735;56.264;43.898;2023-04-27T13:17:41;100263.22;;;25.30;31.45